createdAt,value
2017-08-29T00:00:41.465Z,10.98
2017-08-29T00:03:09.238Z,10.95
2017-08-29T00:05:37.057Z,10.92
2017-08-29T00:08:04.828Z,10.93
2017-08-29T00:10:32.648Z,10.93
2017-08-29T00:13:00.462Z,10.81
2017-08-29T00:15:28.247Z,10.81
2017-08-29T00:17:56.084Z,10.81
2017-08-29T00:20:24.279Z,10.81
2017-08-29T00:22:52.122Z,10.77
2017-08-29T00:25:19.922Z,10.75
2017-08-29T00:27:47.779Z,10.70
2017-08-29T00:30:15.613Z,10.65
2017-08-29T00:32:43.455Z,10.63
2017-08-29T00:35:11.191Z,10.61
2017-08-29T00:37:39.021Z,10.60
2017-08-29T00:40:06.789Z,10.55
2017-08-29T00:42:34.595Z,10.53
2017-08-29T00:45:02.403Z,10.52
2017-08-29T00:47:30.232Z,10.49
2017-08-29T00:49:58.030Z,10.47
2017-08-29T00:52:25.860Z,10.46
2017-08-29T00:54:53.670Z,10.45
2017-08-29T00:57:21.446Z,10.41
2017-08-29T00:59:49.290Z,10.40
2017-08-29T01:02:17.096Z,10.36
2017-08-29T01:04:44.969Z,10.31
2017-08-29T01:07:12.744Z,10.34
2017-08-29T01:09:40.584Z,10.33
2017-08-29T01:12:08.426Z,10.30
2017-08-29T01:14:36.272Z,10.20
2017-08-29T01:17:04.100Z,10.16
2017-08-29T01:19:32.014Z,10.14
2017-08-29T01:21:59.852Z,10.13
2017-08-29T01:24:27.698Z,10.11
2017-08-29T01:26:55.527Z,10.14
2017-08-29T01:29:23.409Z,10.17
2017-08-29T01:31:51.167Z,10.17
2017-08-29T01:34:19.017Z,10.18
2017-08-29T01:36:46.877Z,10.20
2017-08-29T01:39:14.672Z,10.20
2017-08-29T01:41:42.550Z,10.16
2017-08-29T01:44:10.388Z,10.13
2017-08-29T01:46:38.258Z,10.09
2017-08-29T01:49:06.095Z,10.05
2017-08-29T01:51:33.967Z,10.01
2017-08-29T01:54:01.792Z,9.97
2017-08-29T01:56:29.685Z,9.91
2017-08-29T01:58:57.880Z,9.92
2017-08-29T02:01:25.876Z,9.89
2017-08-29T02:03:53.721Z,9.85
2017-08-29T02:06:21.630Z,9.82
2017-08-29T02:08:49.461Z,9.80
2017-08-29T02:11:17.248Z,9.77
2017-08-29T02:13:45.096Z,9.74
2017-08-29T02:16:12.906Z,9.72
2017-08-29T02:18:40.752Z,9.71
2017-08-29T02:24:23.820Z,9.72
2017-08-29T02:26:51.576Z,9.72
2017-08-29T02:29:19.404Z,9.71
2017-08-29T02:31:47.196Z,9.68
2017-08-29T02:34:15.025Z,9.65
2017-08-29T02:36:42.812Z,9.64
2017-08-29T02:39:10.555Z,9.63
2017-08-29T02:41:38.338Z,9.64
2017-08-29T02:44:06.193Z,9.62
2017-08-29T02:46:33.978Z,9.60
2017-08-29T02:49:01.808Z,9.58
2017-08-29T02:54:02.046Z,9.56
2017-08-29T02:56:29.848Z,9.57
2017-08-29T02:58:57.625Z,9.56
2017-08-29T03:01:25.434Z,9.52
2017-08-29T03:03:53.220Z,9.49
2017-08-29T03:06:21.041Z,9.50
2017-08-29T03:08:48.737Z,9.53
2017-08-29T03:11:16.558Z,9.55
2017-08-29T03:13:44.368Z,9.55
2017-08-29T03:16:12.194Z,9.56
2017-08-29T03:18:39.915Z,9.58
2017-08-29T03:21:07.807Z,9.52
2017-08-29T03:23:35.600Z,9.49
2017-08-29T03:26:03.411Z,9.48
2017-08-29T03:28:31.198Z,9.46
2017-08-29T03:30:59.022Z,9.40
2017-08-29T03:33:26.825Z,9.35
2017-08-29T03:35:54.648Z,9.30
2017-08-29T03:38:22.418Z,9.30
2017-08-29T03:40:50.188Z,9.28
2017-08-29T03:43:17.993Z,9.27
2017-08-29T03:45:45.799Z,9.28
2017-08-29T03:48:13.625Z,9.28
2017-08-29T03:50:41.430Z,9.25
2017-08-29T03:53:09.275Z,9.20
2017-08-29T03:55:37.078Z,9.13
2017-08-29T03:58:04.924Z,9.10
2017-08-29T04:00:32.711Z,9.08
2017-08-29T04:03:00.519Z,9.04
2017-08-29T04:05:28.288Z,9.04
2017-08-29T04:07:56.105Z,9.06
2017-08-29T04:10:23.809Z,9.05
2017-08-29T04:12:51.635Z,9.07
2017-08-29T04:15:19.429Z,9.05
2017-08-29T04:17:47.241Z,9.03
2017-08-29T04:20:14.989Z,9.02
2017-08-29T04:22:42.784Z,9.02
2017-08-29T04:25:10.674Z,9.05
2017-08-29T04:27:38.453Z,9.04
2017-08-29T04:30:06.357Z,9.06
2017-08-29T04:32:34.424Z,9.10
2017-08-29T04:35:02.248Z,9.12
2017-08-29T04:37:29.940Z,9.13
2017-08-29T04:39:57.751Z,9.16
2017-08-29T04:42:25.455Z,9.19
2017-08-29T04:44:53.146Z,9.14
2017-08-29T04:47:20.953Z,9.09
2017-08-29T04:49:48.664Z,9.13
2017-08-29T04:52:16.464Z,9.19
2017-08-29T04:54:44.200Z,9.36
2017-08-29T04:57:11.947Z,9.75
2017-08-29T04:59:39.711Z,10.31
2017-08-29T05:02:07.524Z,10.88
2017-08-29T05:04:35.278Z,11.46
2017-08-29T05:07:03.075Z,11.87
2017-08-29T05:09:30.788Z,12.09
2017-08-29T05:11:58.553Z,11.78
2017-08-29T05:14:26.287Z,11.36
2017-08-29T05:16:54.053Z,11.01
2017-08-29T05:19:21.769Z,10.86
2017-08-29T05:21:49.597Z,10.82
2017-08-29T05:24:17.355Z,11.00
2017-08-29T05:26:45.070Z,11.17
2017-08-29T05:29:12.887Z,11.20
2017-08-29T05:31:40.638Z,11.23
2017-08-29T05:34:08.505Z,11.24
2017-08-29T05:36:36.217Z,11.30
2017-08-29T05:39:04.129Z,11.46
2017-08-29T05:41:31.839Z,11.82
2017-08-29T05:43:59.613Z,12.16
2017-08-29T05:46:27.329Z,12.42
2017-08-29T05:48:55.160Z,12.59
2017-08-29T05:51:22.890Z,12.69
2017-08-29T05:53:50.668Z,12.77
2017-08-29T05:56:18.505Z,12.88
2017-08-29T05:58:46.396Z,13.14
2017-08-29T06:01:14.230Z,13.47
2017-08-29T06:03:42.035Z,13.67
2017-08-29T06:06:09.887Z,13.77
2017-08-29T06:08:37.684Z,13.83
2017-08-29T06:11:05.564Z,13.89
2017-08-29T06:13:33.475Z,13.92
2017-08-29T06:16:01.356Z,14.03
2017-08-29T06:18:29.270Z,14.23
2017-08-29T06:20:57.191Z,14.48
2017-08-29T06:23:25.020Z,14.73
2017-08-29T06:25:52.873Z,14.95
2017-08-29T06:28:20.691Z,15.17
2017-08-29T06:30:48.537Z,15.40
2017-08-29T06:33:16.350Z,15.60
2017-08-29T06:35:44.196Z,15.78
2017-08-29T06:38:12.038Z,16.00
2017-08-29T06:40:39.883Z,16.22
2017-08-29T06:43:07.672Z,16.41
2017-08-29T06:45:35.506Z,16.56
2017-08-29T06:48:03.368Z,16.73
2017-08-29T06:50:31.197Z,16.90
2017-08-29T06:52:59.006Z,17.03
2017-08-29T06:55:26.820Z,17.16
2017-08-29T06:57:54.636Z,17.30
2017-08-29T07:00:22.482Z,17.47
2017-08-29T07:02:50.344Z,17.58
2017-08-29T07:05:18.199Z,17.73
2017-08-29T07:07:46.046Z,17.86
2017-08-29T07:10:13.891Z,18.08
2017-08-29T07:12:41.712Z,18.24
2017-08-29T07:15:09.593Z,18.36
2017-08-29T07:17:37.416Z,18.57
2017-08-29T07:20:05.282Z,18.78
2017-08-29T07:22:33.169Z,18.95
2017-08-29T07:25:00.939Z,19.11
2017-08-29T07:27:28.719Z,19.08
2017-08-29T07:29:56.619Z,18.98
2017-08-29T07:32:24.449Z,19.03
2017-08-29T07:34:52.369Z,19.16
2017-08-29T07:37:20.134Z,19.37
2017-08-29T07:39:47.993Z,19.59
2017-08-29T07:42:15.717Z,19.77
2017-08-29T07:44:43.614Z,20.00
2017-08-29T07:47:11.364Z,20.21
2017-08-29T07:49:39.222Z,20.45
2017-08-29T07:52:06.944Z,20.57
2017-08-29T07:54:34.770Z,20.54
2017-08-29T07:57:02.563Z,20.67
2017-08-29T07:59:30.437Z,20.72
2017-08-29T08:01:58.167Z,20.74
2017-08-29T08:04:25.873Z,20.82
2017-08-29T08:06:53.639Z,21.01
2017-08-29T08:09:21.417Z,21.22
2017-08-29T08:11:49.369Z,21.33
2017-08-29T08:14:17.256Z,21.29
2017-08-29T08:16:45.148Z,21.39
2017-08-29T08:19:12.852Z,21.46
2017-08-29T08:21:40.731Z,21.60
2017-08-29T08:24:08.491Z,21.75
2017-08-29T08:26:36.370Z,21.79
2017-08-29T08:29:04.204Z,21.88
2017-08-29T08:31:32.074Z,21.91
2017-08-29T08:33:59.869Z,22.14
2017-08-29T08:36:27.647Z,22.39
2017-08-29T08:38:55.449Z,22.54
2017-08-29T08:41:23.246Z,22.61
2017-08-29T08:43:51.117Z,22.61
2017-08-29T08:46:18.910Z,22.65
2017-08-29T08:48:46.802Z,22.71
2017-08-29T08:51:14.600Z,22.92
2017-08-29T08:53:42.483Z,23.02
2017-08-29T08:56:10.290Z,22.95
2017-08-29T08:58:38.240Z,22.88
2017-08-29T09:01:06.068Z,22.97
2017-08-29T09:03:33.904Z,22.95
2017-08-29T09:06:01.714Z,22.96
2017-08-29T09:08:29.566Z,23.11
2017-08-29T09:10:57.290Z,23.25
2017-08-29T09:13:25.137Z,23.42
2017-08-29T09:15:52.931Z,23.28
2017-08-29T09:18:20.800Z,23.23
2017-08-29T09:20:48.695Z,23.19
2017-08-29T09:23:16.501Z,23.27
2017-08-29T09:25:44.378Z,23.26
2017-08-29T09:28:12.197Z,23.32
2017-08-29T09:30:40.048Z,23.45
2017-08-29T09:33:07.851Z,23.63
2017-08-29T09:35:35.680Z,23.92
2017-08-29T09:38:03.465Z,23.89
2017-08-29T09:40:31.332Z,23.94
2017-08-29T09:42:59.134Z,24.00
2017-08-29T09:45:26.896Z,24.05
2017-08-29T09:47:54.621Z,24.11
2017-08-29T09:50:22.385Z,24.34
2017-08-29T09:52:50.116Z,24.60
2017-08-29T09:55:17.952Z,24.56
2017-08-29T09:57:45.724Z,24.63
2017-08-29T10:00:13.460Z,24.58
2017-08-29T10:02:41.242Z,24.52
2017-08-29T10:05:08.965Z,24.71
2017-08-29T10:07:36.785Z,24.89
2017-08-29T10:10:04.487Z,24.69
2017-08-29T10:12:32.303Z,24.63
2017-08-29T10:15:00.044Z,24.68
2017-08-29T10:17:27.813Z,24.75
2017-08-29T10:19:55.560Z,24.95
2017-08-29T10:22:23.348Z,24.91
2017-08-29T10:24:51.073Z,24.92
2017-08-29T10:27:18.869Z,24.80
2017-08-29T10:29:46.567Z,24.86
2017-08-29T10:32:14.378Z,24.90
2017-08-29T10:34:42.106Z,25.09
2017-08-29T10:37:09.852Z,25.26
2017-08-29T10:39:37.689Z,25.39
2017-08-29T10:42:05.478Z,25.54
2017-08-29T10:44:33.375Z,25.75
2017-08-29T10:47:01.188Z,25.86
2017-08-29T10:49:29.019Z,25.85
2017-08-29T10:51:57.851Z,25.90
2017-08-29T10:54:25.640Z,25.85
2017-08-29T10:56:53.364Z,25.90
2017-08-29T10:59:21.139Z,25.66
2017-08-29T11:01:48.974Z,25.51
2017-08-29T11:04:16.755Z,25.64
2017-08-29T11:06:45.247Z,25.91
2017-08-29T11:09:12.998Z,26.05
2017-08-29T11:11:40.744Z,26.30
2017-08-29T11:14:08.470Z,26.50
2017-08-29T11:16:38.570Z,26.64
2017-08-29T11:19:06.373Z,26.30
2017-08-29T11:21:34.181Z,26.41
2017-08-29T11:24:01.981Z,26.48
2017-08-29T11:26:29.887Z,26.55
2017-08-29T11:28:57.665Z,26.51
2017-08-29T11:31:25.578Z,26.36
2017-08-29T11:33:53.337Z,26.25
2017-08-29T11:36:21.263Z,26.39
2017-08-29T11:38:49.091Z,26.55
2017-08-29T11:41:17.031Z,26.65
2017-08-29T11:43:44.881Z,26.71
2017-08-29T11:46:12.724Z,26.71
2017-08-29T11:48:40.625Z,26.71
2017-08-29T11:51:08.484Z,26.76
2017-08-29T11:53:36.390Z,26.89
2017-08-29T11:56:04.266Z,26.81
2017-08-29T11:58:32.177Z,26.75
2017-08-29T12:01:00.064Z,26.84
2017-08-29T12:03:27.975Z,26.89
2017-08-29T12:05:55.872Z,27.02
2017-08-29T12:08:23.780Z,26.74
2017-08-29T12:10:51.573Z,26.87
2017-08-29T12:13:19.425Z,26.93
2017-08-29T12:15:47.240Z,27.02
2017-08-29T12:18:15.055Z,27.15
2017-08-29T12:20:42.950Z,27.24
2017-08-29T12:23:10.733Z,27.35
2017-08-29T12:25:38.576Z,27.30
2017-08-29T12:28:06.412Z,27.32
2017-08-29T12:30:34.211Z,27.37
2017-08-29T12:33:02.024Z,27.45
2017-08-29T12:35:29.866Z,27.20
2017-08-29T12:37:57.681Z,27.23
2017-08-29T12:40:25.559Z,27.25
2017-08-29T12:42:53.384Z,27.12
2017-08-29T12:45:21.254Z,26.95
2017-08-29T12:47:49.096Z,26.99
2017-08-29T12:50:16.898Z,27.24
2017-08-29T12:52:44.766Z,27.32
2017-08-29T12:55:12.633Z,27.37
2017-08-29T12:57:40.476Z,27.32
2017-08-29T13:00:08.296Z,27.25
2017-08-29T13:02:36.128Z,27.37
2017-08-29T13:05:03.957Z,27.53
2017-08-29T13:07:31.821Z,27.62
2017-08-29T13:09:59.616Z,27.59
2017-08-29T13:12:27.457Z,27.69
2017-08-29T13:14:55.211Z,27.67
2017-08-29T13:17:22.975Z,27.70
2017-08-29T13:19:50.778Z,27.63
2017-08-29T13:22:18.590Z,27.55
2017-08-29T13:24:46.417Z,27.57
2017-08-29T13:27:14.180Z,27.70
2017-08-29T13:29:41.964Z,27.78
2017-08-29T13:32:09.721Z,27.81
2017-08-29T13:34:37.491Z,27.66
2017-08-29T13:37:05.223Z,27.61
2017-08-29T13:39:32.978Z,27.63
2017-08-29T13:42:00.691Z,27.64
2017-08-29T13:44:28.408Z,27.54
2017-08-29T13:46:56.178Z,27.43
2017-08-29T13:49:23.885Z,27.43
2017-08-29T13:51:51.680Z,27.28
2017-08-29T13:54:19.382Z,27.25
2017-08-29T13:56:47.144Z,27.29
2017-08-29T13:59:14.835Z,27.45
2017-08-29T14:01:42.588Z,27.51
2017-08-29T14:04:10.312Z,27.59
2017-08-29T14:06:38.079Z,27.64
2017-08-29T14:09:05.796Z,27.56
2017-08-29T14:11:33.592Z,27.26
2017-08-29T14:14:01.329Z,26.97
2017-08-29T14:16:29.183Z,26.95
2017-08-29T14:18:57.030Z,26.94
2017-08-29T14:21:24.724Z,27.14
2017-08-29T14:23:52.481Z,27.44
2017-08-29T14:26:20.231Z,27.63
2017-08-29T14:28:47.984Z,27.79
2017-08-29T14:31:15.698Z,27.90
2017-08-29T14:33:43.442Z,27.95
2017-08-29T14:36:11.220Z,27.76
2017-08-29T14:38:38.987Z,27.72
2017-08-29T14:41:06.816Z,27.76
2017-08-29T14:43:34.652Z,27.67
2017-08-29T14:46:02.383Z,27.67
2017-08-29T14:48:42.098Z,27.55
2017-08-29T14:51:10.300Z,27.40
2017-08-29T14:53:38.365Z,27.17
2017-08-29T14:56:06.188Z,26.94
2017-08-29T14:58:34.046Z,26.90
2017-08-29T15:01:01.806Z,27.04
2017-08-29T15:03:29.546Z,27.22
2017-08-29T15:05:57.358Z,27.47
2017-08-29T15:08:25.058Z,27.59
2017-08-29T15:10:52.950Z,27.59
2017-08-29T15:13:20.780Z,27.54
2017-08-29T15:15:48.619Z,27.64
2017-08-29T15:18:16.428Z,27.73
2017-08-29T15:20:44.213Z,27.84
2017-08-29T15:23:12.035Z,27.87
2017-08-29T15:25:39.907Z,27.72
2017-08-29T15:28:07.729Z,27.60
2017-08-29T15:30:35.503Z,27.55
2017-08-29T15:33:03.339Z,27.46
2017-08-29T15:35:31.149Z,27.44
2017-08-29T15:37:58.994Z,27.40
2017-08-29T15:40:26.801Z,27.19
2017-08-29T15:42:54.622Z,27.03
2017-08-29T15:45:22.363Z,27.14
2017-08-29T15:47:50.244Z,27.28
2017-08-29T15:50:18.069Z,27.36
2017-08-29T15:52:45.910Z,27.33
2017-08-29T15:55:13.692Z,27.32
2017-08-29T15:57:41.536Z,27.26
2017-08-29T16:00:09.343Z,27.18
2017-08-29T16:02:37.167Z,27.09
2017-08-29T16:05:04.947Z,27.00
2017-08-29T16:07:32.746Z,26.96
2017-08-29T16:10:00.590Z,26.93
2017-08-29T16:12:28.380Z,26.94
2017-08-29T16:14:56.169Z,26.94
2017-08-29T16:17:23.972Z,26.92
2017-08-29T16:19:51.842Z,26.88
2017-08-29T16:22:19.575Z,26.85
2017-08-29T16:24:47.469Z,26.84
2017-08-29T16:27:15.284Z,26.82
2017-08-29T16:29:43.077Z,26.78
2017-08-29T16:32:10.903Z,26.74
2017-08-29T16:34:39.228Z,26.71
2017-08-29T16:37:07.083Z,26.63
2017-08-29T16:39:34.907Z,26.55
2017-08-29T16:42:02.761Z,26.49
2017-08-29T16:44:30.580Z,26.44
2017-08-29T16:46:58.430Z,26.37
2017-08-29T16:49:26.227Z,26.30
2017-08-29T16:51:54.098Z,26.25
2017-08-29T16:54:21.912Z,26.16
2017-08-29T16:56:49.787Z,26.04
2017-08-29T16:59:17.610Z,25.94
2017-08-29T17:01:45.483Z,25.84
2017-08-29T17:04:13.290Z,25.74
2017-08-29T17:06:41.184Z,25.58
2017-08-29T17:09:09.052Z,25.42
2017-08-29T17:11:36.941Z,25.31
2017-08-29T17:14:04.808Z,25.21
2017-08-29T17:16:33.157Z,25.08
2017-08-29T17:19:26.038Z,24.93
2017-08-29T17:21:53.826Z,24.77
2017-08-29T17:24:21.615Z,24.61
2017-08-29T17:26:49.345Z,24.46
2017-08-29T17:29:17.200Z,24.32
2017-08-29T17:31:44.922Z,24.16
2017-08-29T17:34:13.088Z,24.05
2017-08-29T17:36:41.165Z,23.85
2017-08-29T17:39:09.031Z,23.62
2017-08-29T17:41:36.850Z,23.43
2017-08-29T17:44:04.742Z,23.30
2017-08-29T17:46:32.563Z,23.10
2017-08-29T17:49:00.384Z,22.94
2017-08-29T17:51:28.244Z,22.70
2017-08-29T17:53:55.993Z,22.38
2017-08-29T17:56:23.784Z,22.12
2017-08-29T17:58:51.598Z,21.99
2017-08-29T18:01:19.388Z,21.81
2017-08-29T18:03:47.157Z,21.68
2017-08-29T18:06:15.029Z,21.53
2017-08-29T18:08:42.760Z,21.36
2017-08-29T18:11:10.522Z,21.23
2017-08-29T18:13:38.232Z,21.12
2017-08-29T18:16:06.011Z,21.04
2017-08-29T18:18:33.738Z,20.99
2017-08-29T18:21:01.536Z,20.99
2017-08-29T18:23:29.259Z,20.98
2017-08-29T18:25:56.967Z,20.97
2017-08-29T18:28:25.096Z,20.87
2017-08-29T18:30:53.055Z,20.71
2017-08-29T18:33:20.859Z,20.57
2017-08-29T18:38:22.090Z,20.45
2017-08-29T18:40:49.809Z,20.44
2017-08-29T18:43:17.581Z,20.43
2017-08-29T18:45:45.374Z,20.40
2017-08-29T18:48:13.155Z,20.31
2017-08-29T18:50:41.026Z,20.19
2017-08-29T18:53:08.836Z,20.10
2017-08-29T18:55:36.570Z,20.07
2017-08-29T18:58:04.672Z,20.06
2017-08-29T19:00:32.524Z,20.00
2017-08-29T19:03:00.403Z,19.88
2017-08-29T19:05:28.325Z,19.78
2017-08-29T19:07:56.347Z,19.66
2017-08-29T19:10:24.300Z,19.54
2017-08-29T19:12:52.199Z,19.52
2017-08-29T19:15:20.126Z,19.50
2017-08-29T19:17:47.974Z,19.49
2017-08-29T19:20:15.906Z,19.41
2017-08-29T19:22:43.795Z,19.31
2017-08-29T19:25:11.612Z,19.27
2017-08-29T19:27:39.570Z,19.17
2017-08-29T19:30:07.459Z,19.03
2017-08-29T19:32:35.322Z,18.94
2017-08-29T19:35:03.166Z,18.88
2017-08-29T19:37:31.005Z,18.87
2017-08-29T19:39:58.798Z,18.87
2017-08-29T19:42:26.675Z,18.87
2017-08-29T19:44:54.494Z,18.88
2017-08-29T19:47:22.350Z,18.86
2017-08-29T19:49:50.178Z,18.76
2017-08-29T19:52:18.009Z,18.66
2017-08-29T19:54:45.877Z,18.57
2017-08-29T19:57:13.623Z,18.54
2017-08-29T19:59:41.408Z,18.52
2017-08-29T20:02:09.231Z,18.52
2017-08-29T20:04:37.192Z,18.47
2017-08-29T20:07:04.920Z,18.48
2017-08-29T20:09:32.715Z,18.38
2017-08-29T20:12:00.454Z,18.30
2017-08-29T20:14:28.238Z,18.28
2017-08-29T20:16:56.037Z,18.25
2017-08-29T20:19:23.850Z,18.17
2017-08-29T20:21:51.636Z,18.07
2017-08-29T20:24:19.412Z,17.93
2017-08-29T20:26:47.255Z,17.85
2017-08-29T20:29:15.082Z,17.78
2017-08-29T20:31:42.875Z,17.73
2017-08-29T20:34:10.686Z,17.71
2017-08-29T20:36:38.560Z,17.67
2017-08-29T20:39:06.390Z,17.65
2017-08-29T20:41:34.222Z,17.65
2017-08-29T20:44:01.983Z,17.69
2017-08-29T20:46:29.783Z,17.71
2017-08-29T20:48:57.493Z,17.69
2017-08-29T20:51:25.300Z,17.54
2017-08-29T20:53:53.056Z,17.39
2017-08-29T20:56:20.869Z,17.39
2017-08-29T20:58:48.727Z,17.50
2017-08-29T21:01:16.460Z,17.51
2017-08-29T21:03:44.349Z,17.46
2017-08-29T21:06:12.165Z,17.40
2017-08-29T21:08:40.118Z,17.30
2017-08-29T21:11:07.916Z,17.23
2017-08-29T21:13:35.836Z,17.23
2017-08-29T21:16:03.608Z,17.26
2017-08-29T21:18:31.393Z,17.20
2017-08-29T21:20:59.194Z,17.16
2017-08-29T21:23:26.932Z,17.12
2017-08-29T21:25:54.776Z,17.00
2017-08-29T21:28:22.568Z,16.91
2017-08-29T21:30:50.424Z,16.87
2017-08-29T21:33:18.243Z,16.82
2017-08-29T21:35:46.028Z,16.81
2017-08-29T21:38:13.848Z,16.81
2017-08-29T21:40:41.695Z,16.79
2017-08-29T21:43:09.547Z,16.76
2017-08-29T21:45:38.228Z,16.76
2017-08-29T21:48:06.037Z,16.76
2017-08-29T21:50:33.843Z,16.78
2017-08-29T21:53:01.651Z,16.76
2017-08-29T21:55:29.482Z,16.74
2017-08-29T21:57:57.337Z,16.70
2017-08-29T22:00:30.895Z,16.62
2017-08-29T22:02:58.742Z,16.56
2017-08-29T22:05:26.558Z,16.53
2017-08-29T22:07:54.396Z,16.50
2017-08-29T22:10:22.221Z,16.48
2017-08-29T22:12:50.080Z,16.42
2017-08-29T22:15:17.881Z,16.39
2017-08-29T22:17:45.752Z,16.38
2017-08-29T22:20:13.579Z,16.38
2017-08-29T22:22:41.411Z,16.36
2017-08-29T22:25:09.201Z,16.35
2017-08-29T22:27:36.984Z,16.32
2017-08-29T22:30:04.869Z,16.30
2017-08-29T22:32:32.592Z,16.26
2017-08-29T22:35:00.436Z,16.22
2017-08-29T22:37:28.238Z,16.21
2017-08-29T22:39:56.090Z,16.18
2017-08-29T22:42:23.905Z,16.13
2017-08-29T22:44:51.726Z,16.08
2017-08-29T22:47:19.529Z,16.08
2017-08-29T22:49:47.368Z,16.16
2017-08-29T22:52:15.161Z,16.16
2017-08-29T22:54:42.911Z,16.10
2017-08-29T22:57:10.712Z,16.05
2017-08-29T22:59:38.548Z,16.02
2017-08-29T23:02:06.376Z,16.04
2017-08-29T23:04:34.200Z,15.98
2017-08-29T23:07:01.934Z,15.92
2017-08-29T23:09:29.708Z,15.87
2017-08-29T23:11:57.540Z,15.85
2017-08-29T23:14:25.340Z,15.82
2017-08-29T23:16:53.181Z,15.78
2017-08-29T23:19:20.991Z,15.77
2017-08-29T23:21:48.871Z,15.74
2017-08-29T23:24:16.643Z,15.68
2017-08-29T23:26:44.543Z,15.72
2017-08-29T23:29:12.321Z,15.73
2017-08-29T23:31:40.164Z,15.77
2017-08-29T23:34:07.959Z,15.82
2017-08-29T23:36:35.817Z,15.84
2017-08-29T23:39:03.744Z,15.76
2017-08-29T23:41:31.557Z,15.78
2017-08-29T23:43:59.399Z,15.75
2017-08-29T23:46:27.219Z,15.67
2017-08-29T23:48:55.063Z,15.61
2017-08-29T23:51:22.855Z,15.55
2017-08-29T23:53:50.686Z,15.49
2017-08-29T23:56:18.476Z,15.42
2017-08-29T23:58:46.305Z,15.40
